Time;durP1;ratioP1;P1;durP2;ratioP2;P2;SDS_P1;SDS_P2;PMS_P1;PMS_P2;Temp;Humidity;BMP_temperature;BMP_pressure;BME280_temperature;BME280_humidity;BME280_pressure;Samples;Min_cycle;Max_cycle;Signal;HPM_P1;HPM_P2
2022/08/07 00:00:56;;;;;;;1.45;1.20;;;22.20;53.20;;;;;;5031628;28;20200;-69
2022/08/07 00:03:23;;;;;;;2.17;1.42;;;22.20;53.20;;;;;;5032369;28;20208;-69
2022/08/07 00:05:51;;;;;;;2.20;1.45;;;22.20;53.20;;;;;;5032204;28;20164;-71
2022/08/07 00:08:17;;;;;;;1.80;1.20;;;22.20;53.30;;;;;;5031472;28;20634;-70
2022/08/07 00:10:42;;;;;;;1.98;1.20;;;22.20;53.30;;;;;;5032621;28;20196;-70
2022/08/07 00:13:08;;;;;;;2.00;1.20;;;22.20;53.30;;;;;;5032132;28;20638;-69
2022/08/07 00:15:33;;;;;;;2.03;1.38;;;22.20;53.30;;;;;;5031518;28;20270;-69
2022/08/07 00:17:59;;;;;;;2.95;1.30;;;22.20;53.20;;;;;;5032039;28;20184;-69
2022/08/07 00:20:24;;;;;;;2.58;1.30;;;22.20;53.20;;;;;;5032185;28;20176;-69
2022/08/07 00:22:50;;;;;;;1.55;1.40;;;22.20;53.30;;;;;;5031499;28;20294;-68
2022/08/07 00:25:15;;;;;;;2.08;1.50;;;22.20;53.20;;;;;;5032170;28;20231;-69
2022/08/07 00:27:41;;;;;;;2.88;1.90;;;22.20;53.30;;;;;;5032180;28;20726;-69
2022/08/07 00:30:07;;;;;;;1.88;1.15;;;22.20;53.20;;;;;;5031379;28;20179;-70
2022/08/07 00:32:33;;;;;;;2.67;1.42;;;22.20;53.30;;;;;;5032325;28;20179;-69
2022/08/07 00:34:58;;;;;;;1.67;1.52;;;22.20;53.30;;;;;;5033907;28;20645;-69
2022/08/07 00:37:25;;;;;;;1.58;1.48;;;22.20;53.40;;;;;;5035828;28;20168;-69
2022/08/07 00:39:53;;;;;;;1.50;1.30;;;22.10;53.40;;;;;;5035692;28;20179;-69
2022/08/07 00:42:18;;;;;;;2.20;1.85;;;22.20;53.40;;;;;;5034843;28;20733;-69
2022/08/07 00:44:44;;;;;;;1.92;1.42;;;22.10;53.30;;;;;;5035457;28;20187;-68
2022/08/07 00:47:09;;;;;;;1.92;1.60;;;22.10;53.30;;;;;;5035655;28;20571;-68
2022/08/07 00:49:35;;;;;;;1.95;1.40;;;22.10;53.40;;;;;;5034618;28;20229;-68
2022/08/07 00:52:00;;;;;;;2.15;1.95;;;22.10;53.40;;;;;;5035682;28;20262;-69
2022/08/07 00:54:26;;;;;;;1.50;1.40;;;22.10;53.30;;;;;;5035370;28;20172;-69
2022/08/07 00:56:51;;;;;;;2.15;1.42;;;22.10;53.40;;;;;;5034589;28;20180;-69
2022/08/07 00:59:17;;;;;;;1.83;1.70;;;22.10;53.40;;;;;;5035305;28;20168;-68
2022/08/07 01:01:43;;;;;;;2.83;1.60;;;22.10;53.40;;;;;;5035169;28;20212;-69
2022/08/07 01:04:09;;;;;;;1.63;1.52;;;22.10;53.40;;;;;;5034592;28;20254;-68
2022/08/07 01:06:34;;;;;;;1.90;1.70;;;22.10;54.10;;;;;;5035315;28;20276;-70
2022/08/07 01:09:00;;;;;;;1.55;1.45;;;22.10;53.40;;;;;;5034870;28;20230;-69
2022/08/07 01:11:26;;;;;;;1.60;1.50;;;22.10;53.40;;;;;;5034332;28;20211;-70
2022/08/07 01:13:51;;;;;;;1.80;1.63;;;22.10;53.40;;;;;;5034963;28;20222;-69
2022/08/07 01:16:17;;;;;;;2.30;1.42;;;22.10;53.50;;;;;;5035005;28;20180;-69
2022/08/07 01:18:42;;;;;;;2.78;1.80;;;22.10;53.50;;;;;;5034324;28;20226;-69
2022/08/07 01:21:08;;;;;;;1.75;1.65;;;22.10;53.60;;;;;;5017243;28;20208;-69
2022/08/07 01:23:33;;;;;;;2.00;1.70;;;22.10;53.50;;;;;;5034787;28;20238;-68
2022/08/07 01:25:59;;;;;;;2.38;1.88;;;22.10;54.20;;;;;;5032917;28;20267;-68
2022/08/07 01:28:24;;;;;;;2.45;1.80;;;22.10;53.50;;;;;;5017285;28;20180;-69
2022/08/07 01:30:50;;;;;;;2.42;2.22;;;22.10;53.50;;;;;;5034628;28;20272;-69
2022/08/07 01:33:16;;;;;;;1.83;1.70;;;22.00;53.50;;;;;;5016193;28;20638;-69
2022/08/07 01:35:41;;;;;;;2.13;1.98;;;22.00;53.50;;;;;;5034975;28;20195;-69
2022/08/07 01:38:07;;;;;;;1.65;1.55;;;22.00;53.60;;;;;;5033479;28;20229;-69
2022/08/07 01:40:32;;;;;;;3.25;1.83;;;22.10;53.60;;;;;;5034041;28;20201;-68
2022/08/07 01:42:58;;;;;;;1.50;1.40;;;22.00;53.50;;;;;;5033254;28;20215;-68
2022/08/07 01:45:25;;;;;;;2.13;1.92;;;22.00;53.50;;;;;;5033150;28;20195;-67
2022/08/07 01:47:51;;;;;;;2.40;2.20;;;22.00;53.60;;;;;;5032923;28;20187;-67
2022/08/07 01:50:16;;;;;;;2.38;2.05;;;22.00;53.60;;;;;;5034287;28;20168;-67
2022/08/07 01:52:42;;;;;;;2.13;1.60;;;22.00;53.60;;;;;;5032381;28;20241;-67
2022/08/07 01:55:07;;;;;;;2.67;1.95;;;22.00;53.60;;;;;;5033054;28;20255;-68
2022/08/07 01:57:33;;;;;;;1.92;1.73;;;22.00;53.60;;;;;;5033194;28;20180;-67
2022/08/07 02:00:02;;;;;;;2.53;1.92;;;22.00;53.60;;;;;;5015760;28;20176;-68
2022/08/07 02:02:45;;;;;;;2.53;2.33;;;22.00;53.70;;;;;;5034028;28;20338;-68
2022/08/07 02:05:13;;;;;;;2.17;1.92;;;22.00;53.70;;;;;;5033242;28;20176;-70
2022/08/07 02:07:43;;;;;;;2.47;2.28;;;22.00;53.70;;;;;;5032343;28;20180;-70
2022/08/07 02:10:09;;;;;;;2.15;1.95;;;22.00;53.80;;;;;;5033901;28;20227;-69
2022/08/07 02:12:36;;;;;;;2.00;1.80;;;22.00;53.80;;;;;;5032757;28;20634;-69
2022/08/07 02:15:01;;;;;;;2.17;1.98;;;22.00;53.80;;;;;;5033058;28;20195;-70
2022/08/07 02:17:27;;;;;;;2.40;2.20;;;22.00;53.80;;;;;;5016358;28;20183;-69
2022/08/07 02:19:52;;;;;;;2.33;2.15;;;21.90;53.70;;;;;;5032561;28;20618;-68
2022/08/07 02:22:22;;;;;;;3.58;2.40;;;22.00;53.80;;;;;;5015282;28;20215;-68
2022/08/07 02:24:47;;;;;;;1.98;1.88;;;21.90;53.70;;;;;;5032427;28;20182;-69
2022/08/07 02:27:14;;;;;;;2.47;2.28;;;21.90;53.70;;;;;;5032530;28;20539;-68
2022/08/07 02:29:40;;;;;;;2.50;2.30;;;21.90;53.70;;;;;;5031731;28;20182;-68
2022/08/07 02:32:06;;;;;;;2.35;2.13;;;21.90;53.80;;;;;;5032191;28;20537;-69
2022/08/07 02:34:32;;;;;;;2.45;2.20;;;22.00;53.80;;;;;;5032553;28;20176;-69
2022/08/07 02:36:57;;;;;;;2.40;2.13;;;21.90;53.70;;;;;;5033450;28;20180;-69
2022/08/07 02:39:23;;;;;;;2.20;2.10;;;21.90;53.80;;;;;;5015849;28;20183;-68
2022/08/07 02:41:49;;;;;;;2.50;2.30;;;21.90;53.80;;;;;;5031213;28;20676;-69
2022/08/07 02:44:15;;;;;;;4.03;2.50;;;21.90;53.80;;;;;;5015603;28;20172;-67
2022/08/07 02:46:40;;;;;;;2.78;2.53;;;21.90;53.80;;;;;;5032106;28;20184;-68
2022/08/07 02:49:06;;;;;;;2.60;2.40;;;21.90;53.80;;;;;;5031427;28;20175;-67
2022/08/07 02:51:32;;;;;;;2.40;2.20;;;21.90;53.80;;;;;;5033083;28;20175;-68
2022/08/07 02:53:59;;;;;;;3.28;2.30;;;21.90;53.80;;;;;;5032002;28;20552;-68
2022/08/07 02:56:24;;;;;;;2.25;2.05;;;21.90;53.80;;;;;;5014815;28;20202;-69
2022/08/07 02:58:50;;;;;;;3.08;2.42;;;21.90;53.80;;;;;;5030869;28;20168;-67
2022/08/07 03:01:17;;;;;;;2.72;2.33;;;21.80;53.80;;;;;;5015552;28;20606;-69
2022/08/07 03:03:43;;;;;;;2.78;2.58;;;21.90;53.90;;;;;;5031210;28;20700;-68
2022/08/07 03:06:08;;;;;;;2.55;2.33;;;21.90;53.90;;;;;;5015465;28;20179;-69
2022/08/07 03:08:34;;;;;;;2.10;1.98;;;21.90;53.90;;;;;;5032619;28;20285;-70
2022/08/07 03:10:59;;;;;;;2.50;2.30;;;21.80;53.90;;;;;;5014507;28;20631;-70
2022/08/07 03:13:25;;;;;;;2.45;2.25;;;21.90;53.90;;;;;;5015072;28;20179;-69
2022/08/07 03:15:50;;;;;;;2.97;2.75;;;21.80;53.90;;;;;;5031815;28;20182;-69
2022/08/07 03:18:16;;;;;;;2.58;2.35;;;21.80;53.90;;;;;;5031151;28;20175;-69
2022/08/07 03:20:41;;;;;;;3.22;2.50;;;21.80;53.90;;;;;;5015332;28;20179;-68
2022/08/07 03:23:07;;;;;;;2.92;2.67;;;21.80;53.90;;;;;;5031421;28;20298;-68
2022/08/07 03:25:32;;;;;;;3.10;2.70;;;21.80;53.90;;;;;;5030812;28;20187;-68
2022/08/07 03:27:58;;;;;;;2.30;2.20;;;21.80;53.90;;;;;;5031289;28;20199;-69
2022/08/07 03:30:24;;;;;;;3.22;2.95;;;21.80;54.00;;;;;;5032878;28;20255;-69
2022/08/07 03:32:49;;;;;;;2.58;2.38;;;21.80;54.00;;;;;;5030621;28;20182;-69
2022/08/07 03:35:24;;;;;;;2.70;2.28;;;21.80;54.00;;;;;;5015136;28;20267;-69
2022/08/07 03:37:58;;;;;;;2.83;2.53;;;21.80;54.00;;;;;;5014199;28;20182;-68
2022/08/07 03:40:23;;;;;;;2.70;2.50;;;21.80;54.00;;;;;;5031448;28;20179;-69
2022/08/07 03:42:50;;;;;;;2.70;2.50;;;21.80;54.00;;;;;;5032522;28;20307;-68
2022/08/07 03:45:15;;;;;;;2.78;2.58;;;21.80;54.00;;;;;;5031946;28;20267;-67
2022/08/07 03:47:41;;;;;;;3.00;2.70;;;21.80;54.00;;;;;;5032701;28;20599;-67
2022/08/07 03:50:06;;;;;;;2.80;2.53;;;21.80;54.00;;;;;;5031218;28;20552;-67
2022/08/07 03:52:32;;;;;;;3.00;2.80;;;21.80;54.00;;;;;;5031775;28;20179;-67
2022/08/07 03:54:58;;;;;;;2.60;2.42;;;21.70;54.00;;;;;;5014666;28;20168;-68
2022/08/07 03:57:25;;;;;;;2.78;2.53;;;21.70;54.10;;;;;;5032614;28;20179;-67
2022/08/07 03:59:51;;;;;;;2.78;2.58;;;21.80;54.10;;;;;;5031815;28;20172;-68
2022/08/07 04:02:16;;;;;;;2.88;2.67;;;21.70;54.00;;;;;;5032450;28;20302;-68
2022/08/07 04:04:42;;;;;;;3.17;2.83;;;21.80;54.10;;;;;;5031344;28;20271;-68
2022/08/07 04:07:07;;;;;;;3.10;2.90;;;21.80;54.10;;;;;;5031563;28;20263;-70
2022/08/07 04:09:34;;;;;;;2.88;2.67;;;21.80;54.10;;;;;;5034054;28;20585;-70
2022/08/07 04:11:59;;;;;;;3.00;2.67;;;21.70;54.00;;;;;;5036263;28;20191;-69
2022/08/07 04:14:25;;;;;;;2.92;2.47;;;21.70;54.10;;;;;;5035494;28;20267;-68
2022/08/07 04:16:50;;;;;;;3.30;2.88;;;21.70;54.10;;;;;;5018444;28;20168;-68
2022/08/07 04:19:16;;;;;;;2.90;2.67;;;21.70;54.10;;;;;;5036134;28;20183;-68
2022/08/07 04:21:42;;;;;;;3.10;2.80;;;21.70;54.10;;;;;;5034081;28;20214;-68
2022/08/07 04:24:09;;;;;;;3.30;3.00;;;21.70;54.70;;;;;;5034547;28;20191;-68
2022/08/07 04:26:35;;;;;;;3.03;2.80;;;21.70;54.10;;;;;;5018775;28;20183;-68
2022/08/07 04:29:01;;;;;;;2.78;2.58;;;21.70;54.10;;;;;;5033664;28;20180;-68
2022/08/07 04:31:27;;;;;;;2.83;2.63;;;21.70;54.10;;;;;;5035896;28;20229;-68
2022/08/07 04:33:52;;;;;;;2.72;2.53;;;21.70;54.10;;;;;;5035547;28;20176;-68
2022/08/07 04:36:18;;;;;;;2.70;2.50;;;21.70;54.20;;;;;;5033855;28;20265;-69
2022/08/07 04:38:43;;;;;;;2.72;2.53;;;21.70;54.20;;;;;;5034438;28;20172;-68
2022/08/07 04:41:09;;;;;;;3.60;3.30;;;21.70;54.20;;;;;;5035292;28;20250;-69
2022/08/07 04:43:38;;;;;;;2.83;2.63;;;21.70;54.10;;;;;;5035672;28;20234;-67
2022/08/07 04:46:11;;;;;;;3.28;2.97;;;21.70;54.10;;;;;;5034255;28;20665;-68
2022/08/07 04:48:46;;;;;;;3.00;2.70;;;21.70;54.10;;;;;;5034623;28;20266;-67
2022/08/07 04:51:26;;;;;;;2.88;2.67;;;21.70;54.10;;;;;;5034343;28;20186;-69
2022/08/07 04:53:55;;;;;;;3.45;3.15;;;21.70;54.10;;;;;;5035498;28;20167;-67
2022/08/07 04:56:25;;;;;;;3.60;3.30;;;21.70;54.10;;;;;;5034840;28;20254;-68
2022/08/07 04:59:06;;;;;;;3.08;2.63;;;21.70;54.10;;;;;;5017386;28;20638;-66
2022/08/07 05:01:48;;;;;;;3.47;3.17;;;21.70;54.10;;;;;;5017641;28;20286;-68
2022/08/07 05:04:15;;;;;;;3.10;2.90;;;21.70;54.10;;;;;;5033593;28;20180;-68
2022/08/07 05:07:21;;;;;;;3.42;3.13;;;21.70;54.10;;;;;;5017737;28;20202;-69
2022/08/07 05:10:03;;;;;;;3.47;3.13;;;21.70;54.20;;;;;;4995959;28;20229;-69
2022/08/07 05:12:35;;;;;;;3.30;3.10;;;21.70;54.20;;;;;;5035282;28;20267;-68
2022/08/07 05:15:15;;;;;;;3.33;3.03;;;21.70;54.20;;;;;;5033636;28;20648;-68
2022/08/07 05:17:43;;;;;;;3.67;3.35;;;21.70;54.10;;;;;;5033274;28;20195;-68
2022/08/07 05:20:10;;;;;;;3.40;3.10;;;21.70;54.20;;;;;;5032964;28;20176;-68
2022/08/07 05:22:36;;;;;;;3.38;3.08;;;21.70;54.10;;;;;;5034666;28;20203;-67
2022/08/07 05:25:01;;;;;;;3.65;3.15;;;21.70;54.20;;;;;;5032710;28;20222;-68
2022/08/07 05:27:27;;;;;;;3.50;3.20;;;21.70;54.20;;;;;;5017185;28;20179;-68
2022/08/07 05:29:52;;;;;;;3.58;3.28;;;21.70;54.10;;;;;;5033543;28;20175;-69
2022/08/07 05:32:18;;;;;;;3.42;3.13;;;21.70;54.10;;;;;;5016467;28;20194;-68
2022/08/07 05:34:43;;;;;;;3.45;3.15;;;21.70;54.10;;;;;;5033231;28;20168;-67
2022/08/07 05:37:09;;;;;;;3.47;3.17;;;21.70;54.10;;;;;;5033428;28;20179;-69
2022/08/07 05:39:35;;;;;;;3.47;3.17;;;21.70;54.10;;;;;;5033939;28;20577;-68
2022/08/07 05:42:01;;;;;;;4.60;4.20;;;21.70;54.10;;;;;;5033399;28;20218;-68
2022/08/07 05:44:26;;;;;;;3.00;2.80;;;21.70;54.10;;;;;;5016214;28;20172;-67
2022/08/07 05:46:52;;;;;;;3.40;3.10;;;21.70;54.10;;;;;;5034403;28;20175;-68
2022/08/07 05:49:17;;;;;;;4.13;3.72;;;21.70;54.10;;;;;;5033227;28;20183;-67
2022/08/07 05:51:43;;;;;;;3.60;3.30;;;21.70;54.10;;;;;;5015946;28;20222;-68
2022/08/07 05:54:10;;;;;;;3.50;3.25;;;21.70;54.10;;;;;;5034637;28;20325;-68
2022/08/07 05:56:35;;;;;;;3.85;3.55;;;21.70;54.10;;;;;;5034367;28;20291;-68
2022/08/07 05:59:01;;;;;;;3.88;3.40;;;21.70;54.10;;;;;;5033280;28;20168;-67
2022/08/07 06:01:26;;;;;;;3.65;3.35;;;21.60;54.00;;;;;;5016459;28;20338;-68
2022/08/07 06:03:53;;;;;;;3.60;3.30;;;21.70;54.10;;;;;;5016245;28;20550;-67
2022/08/07 06:06:18;;;;;;;3.85;3.45;;;21.70;54.10;;;;;;5032138;28;20190;-69
2022/08/07 06:08:44;;;;;;;3.30;3.03;;;21.70;54.10;;;;;;5033857;28;20237;-68
2022/08/07 06:11:09;;;;;;;3.72;3.42;;;21.70;54.10;;;;;;5034149;28;20207;-70
2022/08/07 06:13:35;;;;;;;3.58;3.28;;;21.80;54.10;;;;;;5015299;28;20626;-68
2022/08/07 06:16:01;;;;;;;3.38;3.13;;;21.70;54.10;;;;;;5033983;28;20184;-67
2022/08/07 06:18:26;;;;;;;3.60;3.30;;;21.70;54.10;;;;;;5016087;28;20179;-68
2022/08/07 06:20:52;;;;;;;3.60;3.30;;;21.70;54.10;;;;;;5031593;28;20634;-68
2022/08/07 06:23:17;;;;;;;4.07;3.78;;;21.70;54.10;;;;;;5015882;28;20219;-68
2022/08/07 06:25:44;;;;;;;3.60;3.30;;;21.70;54.10;;;;;;5033897;28;20225;-68
2022/08/07 06:28:09;;;;;;;3.42;3.22;;;21.80;54.10;;;;;;5031946;28;20187;-68
2022/08/07 06:30:36;;;;;;;3.50;3.20;;;21.80;54.20;;;;;;5033543;28;20172;-69
2022/08/07 06:33:01;;;;;;;3.53;3.22;;;21.80;54.10;;;;;;5033197;28;20638;-68
2022/08/07 06:35:27;;;;;;;3.40;3.20;;;21.80;54.10;;;;;;5032737;28;20179;-69
2022/08/07 06:37:52;;;;;;;4.05;3.55;;;21.80;54.00;;;;;;5033495;28;20259;-68
2022/08/07 06:40:18;;;;;;;3.28;2.97;;;21.80;54.10;;;;;;5033532;28;20175;-68
2022/08/07 06:42:45;;;;;;;3.47;3.17;;;21.80;54.00;;;;;;5032509;28;20219;-68
2022/08/07 06:45:13;;;;;;;3.47;3.17;;;21.80;54.00;;;;;;5033493;28;20171;-68
2022/08/07 06:47:39;;;;;;;3.33;3.03;;;21.80;54.00;;;;;;5032231;28;20258;-68
2022/08/07 06:50:05;;;;;;;3.05;2.85;;;21.80;54.00;;;;;;5032307;28;20266;-68
2022/08/07 06:52:33;;;;;;;3.70;3.40;;;21.80;54.00;;;;;;5031988;28;20282;-68
2022/08/07 06:54:59;;;;;;;3.97;3.67;;;21.90;54.00;;;;;;5031100;28;20195;-68
2022/08/07 06:57:25;;;;;;;3.20;3.00;;;21.90;54.00;;;;;;5015613;28;20634;-67
2022/08/07 06:59:50;;;;;;;3.85;3.55;;;21.90;54.00;;;;;;5032941;28;20263;-68
2022/08/07 07:02:20;;;;;;;3.88;3.58;;;21.90;53.90;;;;;;5032262;28;20253;-69
2022/08/07 07:04:46;;;;;;;3.72;3.42;;;21.90;53.90;;;;;;5032873;28;20582;-69
2022/08/07 07:07:12;;;;;;;3.75;3.45;;;21.90;53.90;;;;;;5032061;28;20700;-70
2022/08/07 07:09:48;;;;;;;3.90;3.60;;;22.00;54.00;;;;;;5030794;28;20277;-70
2022/08/07 07:12:17;;;;;;;3.85;3.55;;;21.90;54.00;;;;;;5031824;28;20186;-70
2022/08/07 07:15:14;;;;;;;3.00;2.80;;;21.90;54.00;;;;;;5032913;28;20225;-69
2022/08/07 07:17:47;;;;;;;3.42;3.22;;;21.90;53.90;;;;;;5031423;28;20238;-69
2022/08/07 07:20:17;;;;;;;4.50;3.47;;;22.00;53.90;;;;;;5015394;28;20184;-70
2022/08/07 07:22:42;;;;;;;3.92;3.63;;;22.00;53.90;;;;;;5031560;28;20223;-69
2022/08/07 07:25:09;;;;;;;3.13;2.92;;;22.00;53.90;;;;;;5030762;28;20176;-69
2022/08/07 07:27:38;;;;;;;3.47;3.17;;;22.00;53.90;;;;;;5031534;28;20183;-69
2022/08/07 07:30:04;;;;;;;3.60;3.30;;;22.00;53.90;;;;;;5032047;28;20222;-69
2022/08/07 07:32:30;;;;;;;3.05;2.85;;;22.10;53.90;;;;;;5031388;28;20537;-70
2022/08/07 07:34:57;;;;;;;3.83;3.53;;;22.00;53.90;;;;;;5031399;28;20191;-70
2022/08/07 07:37:23;;;;;;;3.92;3.63;;;22.10;53.90;;;;;;5014226;28;20222;-69
2022/08/07 07:39:49;;;;;;;3.50;3.20;;;22.10;53.90;;;;;;5032028;28;20226;-70
2022/08/07 07:42:14;;;;;;;3.55;3.25;;;22.10;53.90;;;;;;5031309;28;20219;-69
2022/08/07 07:44:42;;;;;;;4.03;3.47;;;22.10;53.90;;;;;;5033275;28;20250;-69
2022/08/07 07:47:07;;;;;;;3.83;3.53;;;22.10;53.80;;;;;;5036618;28;20184;-70
2022/08/07 07:49:33;;;;;;;4.00;3.60;;;22.20;53.90;;;;;;5036532;28;20719;-68
2022/08/07 07:51:59;;;;;;;4.15;3.85;;;22.20;53.80;;;;;;5034547;28;20176;-71
2022/08/07 07:54:25;;;;;;;6.22;3.30;;;22.20;53.90;;;;;;5036398;28;20174;-67
2022/08/07 07:56:51;;;;;;;4.28;3.63;;;22.20;53.90;;;;;;5034969;28;20183;-67
2022/08/07 07:59:17;;;;;;;8.52;3.90;;;22.20;53.70;;;;;;5017901;28;20650;-66
2022/08/07 08:01:44;;;;;;;6.57;3.75;;;22.20;53.40;;;;;;5018721;28;20203;-67
2022/08/07 08:04:10;;;;;;;6.38;3.42;;;22.20;52.90;;;;;;5018825;28;20168;-69
2022/08/07 08:06:36;;;;;;;5.43;3.75;;;22.20;52.20;;;;;;5034218;28;20653;-68
2022/08/07 08:09:03;;;;;;;4.60;3.42;;;22.20;51.90;;;;;;5018002;28;20590;-66
2022/08/07 08:11:29;;;;;;;4.65;3.05;;;22.20;51.90;;;;;;5036263;28;20174;-67
2022/08/07 08:13:54;;;;;;;3.83;3.38;;;22.20;51.10;;;;;;5034274;28;20191;-66
2022/08/07 08:16:20;;;;;;;4.22;2.85;;;22.20;51.30;;;;;;5036305;28;20585;-67
2022/08/07 08:18:46;;;;;;;4.78;3.42;;;22.20;51.50;;;;;;5034780;28;20521;-67
2022/08/07 08:29:27;;;;;;;4.72;3.15;;;22.30;50.60;;;;;;5034955;28;20178;-65
2022/08/07 08:31:52;;;;;;;4.20;3.33;;;22.30;50.20;;;;;;5017954;28;20180;-66
2022/08/07 08:34:18;;;;;;;3.97;3.50;;;22.30;50.20;;;;;;5034059;28;20180;-67
2022/08/07 08:36:44;;;;;;;4.95;2.90;;;22.30;50.00;;;;;;5017876;28;20183;-70
2022/08/07 08:39:09;;;;;;;4.88;3.08;;;22.40;50.10;;;;;;5035810;28;20278;-70
2022/08/07 08:42:03;;;;;;;3.92;2.85;;;22.40;50.10;;;;;;5033775;28;20211;-69
2022/08/07 08:44:53;;;;;;;5.20;3.33;;;22.50;50.30;;;;;;5035518;28;20207;-69
2022/08/07 08:47:48;;;;;;;4.32;3.28;;;22.50;50.40;;;;;;5017105;28;20646;-69
2022/08/07 08:50:20;;;;;;;2.90;2.55;;;22.50;50.60;;;;;;5035529;28;20261;-68
2022/08/07 08:53:01;;;;;;;4.35;2.88;;;22.50;50.70;;;;;;5034118;28;20764;-70
2022/08/07 08:55:32;;;;;;;4.00;3.28;;;22.50;50.80;;;;;;5032450;28;20273;-69
2022/08/07 08:58:04;;;;;;;4.40;3.40;;;22.60;50.90;;;;;;5034291;28;20176;-68
2022/08/07 09:00:34;;;;;;;4.32;2.90;;;22.60;51.00;;;;;;5034177;28;20544;-69
2022/08/07 09:03:09;;;;;;;3.17;2.88;;;22.60;51.20;;;;;;5033175;28;20641;-70
2022/08/07 09:05:47;;;;;;;4.15;2.72;;;22.60;51.10;;;;;;5034574;28;20171;-71
2022/08/07 09:08:30;;;;;;;3.20;2.67;;;22.60;51.10;;;;;;5034032;28;20183;-73
2022/08/07 09:11:14;;;;;;;3.75;3.00;;;22.70;51.30;;;;;;5034917;28;20202;-70
2022/08/07 09:14:05;;;;;;;4.68;3.00;;;22.70;51.30;;;;;;5017441;28;20179;-71
2022/08/07 09:16:44;;;;;;;3.42;2.50;;;22.70;51.30;;;;;;5033343;28;20179;-70
2022/08/07 09:19:09;;;;;;;4.43;2.83;;;22.70;51.30;;;;;;5033988;28;20255;-71
2022/08/07 09:21:57;;;;;;;4.22;2.65;;;22.80;51.40;;;;;;5034754;28;20319;-70
2022/08/07 09:24:46;;;;;;;3.72;2.40;;;22.80;51.30;;;;;;5016446;28;20680;-70
2022/08/07 09:27:29;;;;;;;2.97;2.72;;;22.80;51.20;;;;;;5033733;28;20168;-70
2022/08/07 09:30:05;;;;;;;3.05;2.47;;;22.90;51.30;;;;;;5034013;28;20180;-70
2022/08/07 09:32:49;;;;;;;3.25;2.92;;;22.90;51.30;;;;;;5034721;28;20179;-71
2022/08/07 09:35:57;;;;;;;2.72;2.38;;;22.90;51.20;;;;;;5017041;28;20712;-71
2022/08/07 09:38:48;;;;;;;3.55;2.85;;;22.90;51.30;;;;;;5025655;28;20202;-70
2022/08/07 09:41:43;;;;;;;3.28;2.70;;;23.00;51.30;;;;;;5016692;28;20666;-71
2022/08/07 09:44:25;;;;;;;3.35;2.65;;;23.00;51.30;;;;;;5032941;28;20313;-70
2022/08/07 09:47:13;;;;;;;3.60;2.63;;;23.00;51.30;;;;;;5033275;28;20263;-70
2022/08/07 09:49:55;;;;;;;2.88;2.67;;;23.00;51.30;;;;;;5033220;28;20187;-70
2022/08/07 09:52:41;;;;;;;3.28;2.97;;;23.00;51.30;;;;;;5032587;28;20183;-70
2022/08/07 09:55:13;;;;;;;2.95;2.60;;;23.00;51.30;;;;;;5023744;28;20184;-70
2022/08/07 09:58:06;;;;;;;2.60;2.40;;;23.10;51.20;;;;;;5033606;28;20176;-70
2022/08/07 10:00:56;;;;;;;3.10;2.90;;;23.10;51.20;;;;;;5033173;28;20183;-71
2022/08/07 10:03:47;;;;;;;2.53;2.33;;;23.10;51.20;;;;;;5033034;28;20547;-71
2022/08/07 10:06:31;;;;;;;3.47;2.63;;;23.10;51.20;;;;;;5031845;28;20631;-72
2022/08/07 10:09:04;;;;;;;3.45;2.95;;;23.10;51.20;;;;;;5033554;28;20713;-71
2022/08/07 10:11:48;;;;;;;2.63;2.35;;;23.10;51.00;;;;;;5032856;28;20195;-71
2022/08/07 10:14:35;;;;;;;2.67;2.33;;;23.10;51.00;;;;;;5034012;28;20642;-71
2022/08/07 10:17:31;;;;;;;2.67;2.47;;;23.10;50.80;;;;;;5016255;28;20191;-71
2022/08/07 10:20:10;;;;;;;4.53;2.50;;;23.10;50.70;;;;;;5033009;28;20237;-70
2022/08/07 10:22:48;;;;;;;4.65;2.45;;;23.10;50.80;;;;;;5032340;28;20207;-71
2022/08/07 10:25:16;;;;;;;3.75;2.60;;;23.00;50.80;;;;;;5033838;28;20257;-71
2022/08/07 10:28:22;;;;;;;2.13;2.00;;;23.00;50.80;;;;;;5032973;28;20266;-71
2022/08/07 10:30:57;;;;;;;2.45;2.33;;;23.10;51.30;;;;;;5032478;28;20172;-71
2022/08/07 10:33:41;;;;;;;2.25;2.08;;;23.10;50.50;;;;;;5031584;28;20171;-71
2022/08/07 10:36:25;;;;;;;2.38;2.10;;;23.10;50.30;;;;;;5033412;28;20171;-71
2022/08/07 10:39:06;;;;;;;2.70;2.40;;;23.20;50.40;;;;;;5033336;28;20182;-71
2022/08/07 10:41:38;;;;;;;2.30;2.10;;;23.20;50.40;;;;;;5032654;28;20699;-71
2022/08/07 10:44:25;;;;;;;3.17;2.55;;;23.20;50.30;;;;;;5033338;28;20180;-70
2022/08/07 10:46:54;;;;;;;2.00;1.70;;;23.20;50.30;;;;;;5031705;28;20176;-71
2022/08/07 10:49:36;;;;;;;2.80;2.53;;;23.20;50.40;;;;;;5032140;28;20701;-70
2022/08/07 10:52:05;;;;;;;3.38;2.97;;;23.10;50.40;;;;;;5015746;28;20262;-70
2022/08/07 10:55:10;;;;;;;2.95;2.35;;;23.10;50.70;;;;;;5031282;28;20764;-70
2022/08/07 10:57:46;;;;;;;2.10;1.90;;;23.00;50.70;;;;;;5031959;28;20684;-70
2022/08/07 11:00:14;;;;;;;3.53;2.72;;;22.90;50.70;;;;;;5033482;28;20264;-70
2022/08/07 11:03:04;;;;;;;3.00;2.35;;;22.90;50.70;;;;;;5015201;28;20218;-71
2022/08/07 11:05:47;;;;;;;2.70;2.15;;;22.90;50.70;;;;;;5032960;28;20701;-72
2022/08/07 11:08:33;;;;;;;2.30;2.17;;;22.90;50.60;;;;;;5032151;28;20217;-71
2022/08/07 11:11:07;;;;;;;2.60;2.00;;;23.00;50.30;;;;;;5031613;28;20190;-72
2022/08/07 11:14:05;;;;;;;3.10;2.42;;;23.10;50.10;;;;;;5033048;28;20183;-71
2022/08/07 11:16:38;;;;;;;2.92;2.03;;;23.20;50.00;;;;;;4998654;28;20533;-71
2022/08/07 11:19:12;;;;;;;2.80;2.55;;;23.20;49.80;;;;;;5030951;28;20564;-71
2022/08/07 11:21:44;;;;;;;3.88;2.38;;;23.20;49.80;;;;;;5032852;28;20246;-71
2022/08/07 11:24:16;;;;;;;2.63;2.42;;;23.30;49.80;;;;;;5031028;28;20255;-71
2022/08/07 11:26:58;;;;;;;2.22;2.03;;;23.20;49.80;;;;;;5032863;28;20192;-71
2022/08/07 11:29:42;;;;;;;2.22;2.03;;;23.20;49.80;;;;;;5031263;28;20531;-71
2022/08/07 11:32:15;;;;;;;2.38;2.20;;;23.10;50.70;;;;;;5015127;28;20187;-72
2022/08/07 11:34:52;;;;;;;2.97;2.47;;;23.00;50.10;;;;;;5032812;28;20278;-71
2022/08/07 11:38:16;;;;;;;2.65;2.45;;;23.00;50.20;;;;;;5031927;28;20223;-71
2022/08/07 11:40:59;;;;;;;2.80;2.60;;;22.90;50.10;;;;;;5008210;28;20190;-71
2022/08/07 11:43:41;;;;;;;2.53;2.20;;;22.90;50.10;;;;;;5030677;28;20334;-71
2022/08/07 11:46:37;;;;;;;2.85;2.30;;;23.00;50.00;;;;;;5015031;28;20229;-71
2022/08/07 11:49:11;;;;;;;2.10;2.00;;;23.10;49.70;;;;;;5031484;28;20183;-70
2022/08/07 11:51:59;;;;;;;4.25;2.60;;;23.20;49.60;;;;;;5031870;28;20171;-71
2022/08/07 11:54:30;;;;;;;2.90;2.33;;;23.30;49.30;;;;;;5032635;28;20187;-70
2022/08/07 11:57:12;;;;;;;2.85;2.33;;;23.30;49.30;;;;;;5032573;28;20168;-71
2022/08/07 11:59:56;;;;;;;2.50;2.30;;;23.20;49.30;;;;;;5031282;28;20184;-71
2022/08/07 12:02:59;;;;;;;2.33;2.13;;;23.20;49.60;;;;;;5032162;28;20215;-71
2022/08/07 12:05:44;;;;;;;2.70;2.20;;;23.20;49.50;;;;;;5031740;28;20175;-71
2022/08/07 12:08:15;;;;;;;3.55;2.90;;;23.40;49.50;;;;;;5031248;28;20178;-72
2022/08/07 12:10:46;;;;;;;2.40;2.20;;;23.40;49.40;;;;;;5031264;28;20562;-73
2022/08/07 12:13:28;;;;;;;2.33;2.03;;;23.40;49.40;;;;;;5031630;28;20180;-74
2022/08/07 12:15:58;;;;;;;2.50;2.30;;;23.40;49.20;;;;;;5030887;28;20183;-73
2022/08/07 12:18:31;;;;;;;2.35;2.15;;;23.50;49.20;;;;;;5030384;28;20184;-72
2022/08/07 12:21:32;;;;;;;3.05;2.45;;;23.50;49.10;;;;;;5032141;28;20195;-73
2022/08/07 12:24:08;;;;;;;2.97;2.35;;;23.50;48.90;;;;;;4998632;28;20195;-72
2022/08/07 12:26:47;;;;;;;2.03;1.83;;;23.60;49.50;;;;;;5013988;28;20183;-72
2022/08/07 12:29:22;;;;;;;2.80;2.30;;;23.60;48.70;;;;;;5031104;28;20218;-74
2022/08/07 12:32:21;;;;;;;2.63;2.30;;;23.70;48.60;;;;;;5035619;28;20238;-75
2022/08/07 12:34:46;;;;;;;2.78;2.50;;;23.70;48.50;;;;;;5035859;28;20172;-73
2022/08/07 12:37:12;;;;;;;2.85;2.38;;;23.70;48.30;;;;;;5018339;28;20175;-74
2022/08/07 12:39:39;;;;;;;2.67;2.47;;;23.70;48.20;;;;;;5017396;28;20199;-72
2022/08/07 12:42:04;;;;;;;3.35;2.47;;;23.70;48.10;;;;;;5034304;28;20242;-73
2022/08/07 12:44:30;;;;;;;2.85;2.50;;;23.80;48.10;;;;;;5034373;28;20215;-72
2022/08/07 12:47:23;;;;;;;2.50;2.30;;;23.80;48.00;;;;;;5033806;28;20191;-72
2022/08/07 12:49:51;;;;;;;2.63;2.30;;;23.80;48.00;;;;;;5035480;28;20179;-71
2022/08/07 12:52:30;;;;;;;2.40;2.20;;;23.90;47.90;;;;;;5035424;28;20582;-73
2022/08/07 12:55:23;;;;;;;2.65;2.45;;;23.90;47.90;;;;;;5034810;28;20179;-71
2022/08/07 12:57:48;;;;;;;2.08;1.98;;;23.90;47.80;;;;;;5017801;28;20520;-72
2022/08/07 13:00:14;;;;;;;2.63;2.42;;;23.90;47.80;;;;;;5034049;28;20663;-72
2022/08/07 13:02:45;;;;;;;2.40;2.20;;;23.90;48.00;;;;;;5034488;28;20266;-74
2022/08/07 13:05:26;;;;;;;2.40;2.20;;;23.80;48.10;;;;;;5035296;28;20172;-74
2022/08/07 13:08:19;;;;;;;2.55;2.35;;;23.70;48.40;;;;;;5034599;28;20286;-73
2022/08/07 13:11:03;;;;;;;2.97;2.53;;;23.60;48.50;;;;;;5033853;28;20275;-75
2022/08/07 13:13:50;;;;;;;2.60;2.40;;;23.60;48.60;;;;;;5035298;28;20221;-72
2022/08/07 13:16:24;;;;;;;2.60;2.40;;;23.60;48.70;;;;;;5033281;28;20180;-72
2022/08/07 13:18:59;;;;;;;2.20;2.10;;;23.50;48.80;;;;;;5033767;28;20176;-71